Time;durP1;ratioP1;P1;durP2;ratioP2;P2;SDS_P1;SDS_P2;PMS_P1;PMS_P2;Temp;Humidity;BMP_temperature;BMP_pressure;BME280_temperature;BME280_humidity;BME280_pressure;Samples;Min_cycle;Max_cycle;Signal;HPM_P1;HPM_P2
2021/01/05 00:02:09;;;;;;;45.33;14.27;;;1.90;99.90;;;2.75;92.95;101331.50;5071225;28;20223;-71
2021/01/05 00:04:36;;;;;;;48.13;14.53;;;1.90;99.90;;;2.78;93.10;101336.69;5070731;28;20191;-72
2021/01/05 00:07:04;;;;;;;38.87;13.87;;;1.90;99.90;;;2.80;93.21;101328.97;5070664;28;20735;-72
2021/01/05 00:09:31;;;;;;;48.90;14.47;;;2.00;99.90;;;2.80;93.10;101334.13;5069114;28;20265;-72
2021/01/05 00:12:04;;;;;;;45.73;13.93;;;2.00;99.90;;;2.80;93.39;101339.31;5069279;28;20311;-71
2021/01/05 00:14:31;;;;;;;44.47;13.50;;;2.00;99.90;;;2.81;93.33;101336.72;5069370;28;20185;-71
2021/01/05 00:16:57;;;;;;;36.58;12.18;;;2.00;99.90;;;2.79;92.88;101334.97;5070686;28;20210;-71
2021/01/05 00:19:25;;;;;;;42.37;14.40;;;2.00;99.90;;;2.75;93.15;101335.84;5073955;28;20189;-71
2021/01/05 00:21:54;;;;;;;34.83;12.40;;;2.00;99.90;;;2.72;93.15;101336.69;5074059;28;20241;-71
2021/01/05 00:24:21;;;;;;;39.37;12.93;;;1.90;99.90;;;2.71;93.15;101336.66;5068629;28;20200;-71
2021/01/05 00:26:47;;;;;;;35.13;12.13;;;1.90;99.90;;;2.71;93.56;101339.25;5071009;28;20188;-71
2021/01/05 00:29:15;;;;;;;38.07;11.70;;;1.90;99.90;;;2.71;93.46;101339.25;5072979;28;20204;-71
2021/01/05 00:31:41;;;;;;;39.90;12.23;;;1.90;99.90;;;2.73;93.41;101337.53;5064144;28;20227;-71
2021/01/05 00:34:08;;;;;;;34.87;12.80;;;1.90;99.90;;;2.73;93.74;101340.97;5074125;28;20196;-71
2021/01/05 00:36:37;;;;;;;39.23;12.23;;;1.90;99.90;;;2.74;93.68;101344.44;5073404;28;20180;-72
2021/01/05 00:39:06;;;;;;;35.30;11.77;;;1.90;99.90;;;2.70;93.31;101347.88;5072178;28;20195;-71
2021/01/05 00:41:33;;;;;;;36.03;12.27;;;1.90;99.90;;;2.72;93.22;101348.72;5072325;28;20605;-71
2021/01/05 00:44:00;;;;;;;37.67;11.30;;;1.90;99.90;;;2.73;93.26;101358.22;5073722;28;20184;-70
2021/01/05 00:46:26;;;;;;;32.57;10.73;;;1.90;99.90;;;2.73;93.59;101356.47;5073426;28;20242;-71
2021/01/05 00:48:53;;;;;;;33.70;11.17;;;1.90;99.90;;;2.75;93.36;101343.59;5073014;28;20227;-71
2021/01/05 00:51:19;;;;;;;31.17;11.00;;;1.90;99.90;;;2.78;93.58;101353.94;5072063;28;20200;-71
2021/01/05 00:53:45;;;;;;;34.43;11.30;;;1.90;99.90;;;2.81;93.67;101353.94;5073563;28;20203;-72
2021/01/05 00:56:12;;;;;;;33.70;10.67;;;2.00;99.90;;;2.83;93.17;101357.41;5072322;28;20184;-71
2021/01/05 00:58:39;;;;;;;35.83;11.30;;;2.00;99.90;;;2.82;93.46;101345.31;5071827;28;20287;-71
2021/01/05 01:01:05;;;;;;;31.23;10.93;;;2.00;99.90;;;2.81;93.06;101341.03;5085295;28;20610;-71
2021/01/05 01:03:32;;;;;;;35.00;11.23;;;2.00;99.90;;;2.79;92.98;101341.00;5052049;28;20243;-72
2021/01/05 01:05:59;;;;;;;33.37;12.03;;;2.00;99.90;;;2.80;92.91;101339.31;5051954;28;20196;-72
2021/01/05 01:08:29;;;;;;;39.90;12.20;;;2.00;99.90;;;2.83;93.00;101349.66;5051830;28;20275;-72
2021/01/05 01:10:56;;;;;;;33.30;10.97;;;2.00;99.90;;;2.84;93.04;101347.06;5051808;28;20224;-71
2021/01/05 01:13:26;;;;;;;29.67;10.40;;;2.00;99.90;;;2.84;92.74;101351.34;5051914;28;20213;-72
2021/01/05 01:15:53;;;;;;;30.17;11.10;;;2.00;99.90;;;2.83;92.83;101342.72;5051817;28;20193;-72
2021/01/05 01:18:20;;;;;;;26.37;10.30;;;2.00;99.90;;;2.83;92.67;101341.91;5051438;28;20665;-71
2021/01/05 01:20:46;;;;;;;32.33;10.23;;;2.00;99.90;;;2.82;92.77;101347.91;5051654;28;20610;-72
2021/01/05 01:23:20;;;;;;;31.50;9.93;;;2.00;99.90;;;2.83;92.72;101339.31;5053326;28;20247;-72
2021/01/05 01:25:49;;;;;;;25.97;10.17;;;2.00;99.90;;;2.82;92.77;101345.31;5087275;28;20199;-71
2021/01/05 01:28:16;;;;;;;34.20;11.23;;;2.00;99.90;;;2.83;92.87;101344.47;5050691;28;20749;-71
2021/01/05 01:30:47;;;;;;;30.03;11.07;;;2.00;99.90;;;2.85;93.03;101347.94;5051164;28;20212;-71
2021/01/05 01:33:15;;;;;;;34.27;11.73;;;2.00;99.90;;;2.85;92.96;101346.19;5051305;28;20266;-71
2021/01/05 01:35:42;;;;;;;34.60;11.03;;;2.00;99.90;;;2.84;92.59;101344.47;5051290;28;20712;-71
2021/01/05 01:38:12;;;;;;;36.17;11.80;;;2.10;99.90;;;2.86;92.85;101339.31;5069087;28;20189;-71
2021/01/05 01:40:47;;;;;;;32.77;11.37;;;2.00;99.90;;;2.85;92.77;101351.34;5051119;28;20676;-71
2021/01/05 01:43:19;;;;;;;33.70;10.77;;;2.10;99.90;;;2.83;92.80;101353.06;5052619;28;20250;-72
2021/01/05 01:45:47;;;;;;;25.33;9.83;;;2.00;99.90;;;2.83;92.51;101359.97;5051121;28;20197;-72
2021/01/05 01:48:20;;;;;;;32.70;10.70;;;2.10;99.90;;;2.82;92.47;101351.34;5052127;28;20486;-72
2021/01/05 01:50:52;;;;;;;32.30;11.00;;;2.00;99.90;;;2.81;92.52;101361.69;5051017;28;20213;-72
2021/01/05 01:53:51;;;;;;;32.23;12.17;;;2.10;99.90;;;2.80;92.75;101365.13;5052870;28;20642;-71
2021/01/05 01:56:51;;;;;;;31.93;10.43;;;2.00;99.90;;;2.78;92.65;101361.69;5072794;28;20621;-72
2021/01/05 01:59:55;;;;;;;31.23;10.87;;;2.00;99.90;;;2.76;92.81;101361.69;5070764;28;20187;-71
2021/01/05 02:03:41;;;;;;;28.73;10.40;;;2.00;99.90;;;2.73;92.55;101363.38;5072251;28;20239;-71
2021/01/05 02:06:30;;;;;;;26.17;9.57;;;2.00;99.90;;;2.73;92.88;101356.47;5071978;28;20176;-71
2021/01/05 02:09:37;;;;;;;29.77;9.53;;;2.00;99.90;;;2.73;92.85;101355.63;5070330;28;20610;-72
2021/01/05 02:12:15;;;;;;;28.53;9.53;;;2.00;99.90;;;2.71;92.93;101349.59;5070392;28;20242;-71
2021/01/05 02:15:01;;;;;;;28.10;9.67;;;2.00;99.90;;;2.69;92.80;101347.00;5071978;28;20724;-72
2021/01/05 02:18:03;;;;;;;30.70;11.43;;;2.00;99.90;;;2.73;92.92;101347.88;5070601;28;20256;-71
2021/01/05 02:20:40;;;;;;;36.50;11.93;;;2.00;99.90;;;2.76;93.04;101343.59;5070649;28;20188;-71
2021/01/05 02:23:27;;;;;;;32.07;11.07;;;2.00;99.90;;;2.77;93.03;101358.22;5070181;28;20273;-71
2021/01/05 02:26:06;;;;;;;27.43;10.97;;;2.00;99.90;;;2.77;93.12;101355.63;5061416;28;20195;-72
2021/01/05 02:28:45;;;;;;;28.20;10.57;;;2.00;99.90;;;2.73;92.84;101348.72;5070166;28;20188;-71
2021/01/05 02:31:40;;;;;;;29.43;10.13;;;2.00;99.90;;;2.74;92.72;101349.59;5058561;28;20703;-71
2021/01/05 02:34:22;;;;;;;36.00;12.03;;;2.00;99.90;;;2.76;93.14;101337.56;5048182;28;20224;-71
2021/01/05 02:37:15;;;;;;;35.50;11.77;;;2.00;99.90;;;2.81;93.00;101348.78;5050359;28;20783;-71
2021/01/05 02:40:28;;;;;;;33.93;11.53;;;2.00;99.90;;;2.80;93.04;101339.31;5050563;28;20406;-71
2021/01/05 02:43:46;;;;;;;29.83;10.07;;;2.00;99.90;;;2.77;92.65;101342.72;5051563;28;20231;-71
2021/01/05 02:46:50;;;;;;;31.10;10.77;;;2.00;99.90;;;2.74;92.78;101334.09;5051747;28;20175;-71
2021/01/05 02:49:46;;;;;;;30.17;11.17;;;2.00;99.90;;;2.72;93.00;101340.97;5051186;28;20215;-72
2021/01/05 02:53:30;;;;;;;33.17;11.93;;;2.00;99.90;;;2.74;92.84;101349.59;5051549;28;20220;-72
2021/01/05 02:57:06;;;;;;;32.10;11.47;;;2.00;99.90;;;2.74;92.97;101334.09;5051576;28;20200;-71
2021/01/05 03:00:44;;;;;;;31.37;10.73;;;2.00;99.90;;;2.73;92.76;101334.97;5059670;28;20219;-72
2021/01/05 03:03:40;;;;;;;27.33;9.77;;;2.00;99.90;;;2.70;92.95;101337.53;5051499;28;20330;-72
2021/01/05 03:06:42;;;;;;;33.13;10.80;;;2.00;99.90;;;2.69;92.94;101328.03;5051586;28;20191;-72
2021/01/05 03:09:53;;;;;;;31.10;11.23;;;2.00;99.90;;;2.69;93.14;101325.47;5050841;28;20224;-71
2021/01/05 03:13:08;;;;;;;28.20;9.57;;;1.90;99.90;;;2.74;93.00;101339.25;5051384;28;20399;-71
2021/01/05 03:16:00;;;;;;;27.60;10.03;;;2.00;99.90;;;2.74;92.71;101328.94;5051504;28;20200;-71
2021/01/05 03:19:01;;;;;;;29.40;10.77;;;1.90;99.90;;;2.75;92.88;101325.50;5051203;28;20215;-71
2021/01/05 03:21:55;;;;;;;27.90;10.03;;;1.90;99.90;;;2.76;92.89;101322.94;5051149;28;20766;-71
2021/01/05 03:24:44;;;;;;;27.37;8.30;;;2.00;99.90;;;2.78;92.72;101323.78;5051128;28;20196;-71
2021/01/05 03:27:30;;;;;;;26.50;9.20;;;2.00;99.90;;;2.76;92.69;101325.50;5051227;28;20567;-72
2021/01/05 03:30:26;;;;;;;27.57;10.13;;;2.00;99.90;;;2.80;92.74;101324.66;5059184;28;20211;-71
2021/01/05 03:33:13;;;;;;;29.77;10.47;;;2.00;99.90;;;2.79;92.78;101324.66;5051211;28;20267;-72
2021/01/05 03:35:58;;;;;;;30.10;10.80;;;2.00;99.90;;;2.78;92.67;101312.59;5051178;28;20203;-71
2021/01/05 03:38:43;;;;;;;35.13;10.83;;;2.00;99.90;;;2.80;92.58;101313.47;5050718;28;20212;-72
2021/01/05 03:41:30;;;;;;;30.80;10.53;;;2.00;99.90;;;2.82;92.47;101315.19;5051123;28;20195;-71
2021/01/05 03:44:15;;;;;;;26.37;10.67;;;2.00;99.90;;;2.82;92.54;101316.91;5051193;28;20258;-72
2021/01/05 03:46:59;;;;;;;30.30;10.23;;;2.00;99.90;;;2.81;92.53;101313.47;5050756;28;20208;-72
2021/01/05 03:49:45;;;;;;;25.80;9.50;;;2.00;99.90;;;2.80;92.15;101321.22;5050727;28;20223;-72
2021/01/05 03:52:29;;;;;;;27.77;10.47;;;2.00;99.90;;;2.79;92.30;101319.47;5053404;28;20220;-72
2021/01/05 03:55:17;;;;;;;28.57;11.43;;;2.00;99.90;;;2.81;92.44;101320.34;5054657;28;20196;-71
2021/01/05 03:58:01;;;;;;;32.03;10.60;;;2.00;99.90;;;2.82;92.52;101320.34;5054637;28;20555;-68
2021/01/05 04:00:46;;;;;;;31.57;10.07;;;2.00;99.90;;;2.87;92.39;101310.03;5063450;28;20254;-71
2021/01/05 04:03:12;;;;;;;22.47;8.40;;;2.10;99.90;;;2.85;92.21;101311.75;5074327;28;20215;-71
2021/01/05 04:05:39;;;;;;;29.07;10.67;;;2.10;99.90;;;2.82;92.27;101319.47;5074201;28;20188;-71
2021/01/05 04:08:06;;;;;;;24.97;8.70;;;2.10;99.90;;;2.80;92.02;101310.88;5074155;28;20192;-71
2021/01/05 04:10:32;;;;;;;24.77;9.67;;;2.10;99.90;;;2.78;92.29;101312.59;5074134;28;20220;-71
2021/01/05 04:12:58;;;;;;;26.00;9.20;;;2.00;99.90;;;2.77;92.41;101314.31;5072776;28;20254;-71
2021/01/05 04:15:29;;;;;;;25.37;10.13;;;2.00;99.90;;;2.79;92.42;101311.72;5073970;28;20537;-71
2021/01/05 04:17:58;;;;;;;23.77;9.93;;;2.00;99.90;;;2.82;92.40;101316.91;5072725;28;20602;-72
2021/01/05 04:20:27;;;;;;;26.00;9.17;;;2.00;99.90;;;2.83;92.35;101318.63;5073728;28;20181;-71
2021/01/05 04:22:54;;;;;;;31.60;10.30;;;2.00;99.90;;;2.85;91.99;101328.09;5073762;28;20211;-72
2021/01/05 04:25:21;;;;;;;25.63;10.15;;;2.10;99.90;;;2.84;92.36;101315.19;5067848;28;20192;-71
2021/01/05 04:27:49;;;;;;;25.07;9.77;;;2.10;99.90;;;2.84;92.36;101310.88;5071080;28;20192;-71
2021/01/05 04:30:23;;;;;;;22.07;8.57;;;2.10;99.90;;;2.82;92.21;101329.81;5072104;28;20212;-71
2021/01/05 04:32:50;;;;;;;27.10;9.60;;;2.10;99.90;;;2.78;92.06;101333.25;5073667;28;20211;-72
2021/01/05 04:35:20;;;;;;;26.27;9.20;;;2.00;99.90;;;2.77;92.33;101328.94;5073619;28;20191;-72
2021/01/05 04:37:46;;;;;;;28.15;9.13;;;2.00;99.90;;;2.75;92.37;101321.19;5073617;28;20658;-71
2021/01/05 04:40:28;;;;;;;25.77;9.57;;;2.00;99.90;;;2.74;92.45;101323.75;5071974;28;20237;-72
2021/01/05 04:43:16;;;;;;;26.53;8.47;;;2.00;99.90;;;2.76;92.35;101314.31;5073501;28;20204;-71
2021/01/05 04:46:14;;;;;;;29.07;9.40;;;2.00;99.90;;;2.77;92.01;101326.34;5072264;28;20188;-72
2021/01/05 04:48:49;;;;;;;26.27;9.60;;;2.00;99.90;;;2.79;92.37;101316.88;5073173;28;20203;-72
2021/01/05 04:51:32;;;;;;;25.77;9.53;;;2.00;99.90;;;2.82;92.53;101319.47;5073257;28;20204;-71
2021/01/05 04:54:04;;;;;;;25.40;8.77;;;2.00;99.90;;;2.84;92.50;101328.97;5071809;28;20211;-72
2021/01/05 04:56:52;;;;;;;24.00;8.93;;;2.10;99.90;;;2.87;92.46;101330.69;5080298;28;20237;-71
2021/01/05 04:59:24;;;;;;;22.23;8.83;;;2.10;99.90;;;2.89;92.39;101324.69;5073217;28;20207;-71
2021/01/05 05:01:50;;;;;;;26.77;9.03;;;2.10;99.90;;;2.93;92.56;101320.41;5073256;28;20700;-71
2021/01/05 05:04:32;;;;;;;27.07;10.37;;;2.20;99.90;;;2.94;92.26;101328.16;5071055;28;20241;-71
2021/01/05 05:07:18;;;;;;;26.90;9.70;;;2.20;99.90;;;2.94;92.42;101317.81;5072088;28;20203;-71
2021/01/05 05:09:55;;;;;;;26.20;9.53;;;2.20;99.90;;;2.92;91.96;101319.53;5072766;28;20203;-71
2021/01/05 05:12:45;;;;;;;22.37;8.40;;;2.20;99.90;;;2.92;92.04;101313.47;5073101;28;20208;-72
2021/01/05 05:15:41;;;;;;;26.53;9.97;;;2.20;99.90;;;2.90;91.75;101320.41;5073101;28;20749;-71
2021/01/05 05:18:29;;;;;;;21.83;8.80;;;2.20;99.90;;;2.87;91.53;101310.91;5072900;28;20184;-71
2021/01/05 05:21:25;;;;;;;25.53;9.40;;;2.20;99.90;;;2.90;91.78;101320.41;5071635;28;20189;-71
2021/01/05 05:24:01;;;;;;;29.20;9.07;;;2.20;99.90;;;2.91;91.85;101311.78;5071098;28;20196;-72
2021/01/05 05:26:39;;;;;;;28.47;10.63;;;2.20;99.90;;;2.90;91.80;101304.91;5064491;28;20271;-71
2021/01/05 05:29:24;;;;;;;24.57;8.87;;;2.20;99.90;;;2.95;91.69;101303.19;5088333;28;20661;-71
2021/01/05 05:31:52;;;;;;;18.40;7.27;;;2.20;99.90;;;2.96;91.68;101299.72;5072734;28;20203;-72
2021/01/05 05:34:29;;;;;;;23.33;8.43;;;2.20;99.90;;;2.97;91.72;101296.28;5071439;28;20563;-72
2021/01/05 05:37:12;;;;;;;20.97;8.00;;;2.30;99.90;;;2.94;91.58;101302.31;5073078;28;20192;-72
2021/01/05 05:39:59;;;;;;;18.77;7.33;;;2.30;99.90;;;2.93;91.59;101305.72;5072514;28;20603;-71
2021/01/05 05:43:13;;;;;;;19.70;7.22;;;2.30;99.90;;;2.91;91.60;101310.06;5072479;28;20222;-72
2021/01/05 05:45:45;;;;;;;19.30;7.87;;;2.30;99.90;;;2.92;91.06;101313.47;5072599;28;20219;-72
2021/01/05 05:48:28;;;;;;;24.88;8.38;;;2.20;99.90;;;2.93;91.35;101304.91;5070755;28;20192;-71
2021/01/05 05:51:06;;;;;;;22.27;8.30;;;2.30;99.90;;;2.91;91.30;101298.84;5072483;28;20200;-72
2021/01/05 05:53:41;;;;;;;22.67;8.67;;;2.30;99.90;;;2.93;91.30;101299.72;5071077;28;20235;-72
2021/01/05 05:56:13;;;;;;;23.77;9.40;;;2.30;99.90;;;2.94;91.22;101296.28;5084508;28;20607;-71
2021/01/05 05:58:44;;;;;;;20.27;7.77;;;2.30;99.90;;;2.94;91.09;101298.84;5052229;28;20192;-72
2021/01/05 06:01:18;;;;;;;24.67;8.90;;;2.30;99.90;;;2.95;90.91;101298.84;5052329;28;20216;-72
2021/01/05 06:03:44;;;;;;;26.03;8.37;;;2.30;99.90;;;2.97;91.15;101294.56;5050850;28;20200;-71
2021/01/05 06:06:11;;;;;;;25.17;9.10;;;2.30;99.90;;;3.00;91.25;101309.22;5050894;28;20193;-71
2021/01/05 06:08:37;;;;;;;21.97;9.10;;;2.40;99.90;;;3.03;90.84;101311.81;5050521;28;20188;-71
2021/01/05 06:11:03;;;;;;;25.50;9.17;;;2.40;99.90;;;3.02;90.98;101313.53;5051808;28;20241;-71
2021/01/05 06:13:30;;;;;;;25.30;9.33;;;2.40;99.90;;;3.02;90.77;101310.94;5051792;28;20204;-71
2021/01/05 06:15:56;;;;;;;25.13;9.60;;;2.40;99.90;;;3.03;90.43;101312.66;5050433;28;20204;-72
2021/01/05 06:18:23;;;;;;;22.03;7.90;;;2.40;99.90;;;3.03;90.67;101322.16;5050297;28;20185;-72
2021/01/05 06:20:49;;;;;;;22.00;8.80;;;2.40;99.90;;;3.02;90.71;101315.22;5051923;28;20193;-72
2021/01/05 06:23:18;;;;;;;20.98;8.35;;;2.30;99.90;;;3.04;90.37;101318.69;5051519;28;20713;-72
2021/01/05 06:25:45;;;;;;;21.40;8.27;;;2.40;99.90;;;3.01;90.58;101314.41;5060446;28;20210;-71
2021/01/05 06:28:12;;;;;;;22.08;8.38;;;2.40;99.90;;;2.97;90.50;101314.34;5051544;28;20189;-71
2021/01/05 06:30:38;;;;;;;22.50;8.60;;;2.30;99.90;;;2.94;90.39;101317.81;5059663;28;20246;-72
2021/01/05 06:33:05;;;;;;;22.70;8.13;;;2.30;99.90;;;2.93;90.48;101315.22;5061800;28;20227;-71
2021/01/05 06:35:32;;;;;;;25.50;9.93;;;2.30;99.90;;;2.90;90.44;101325.56;5071456;28;20199;-71
2021/01/05 06:37:59;;;;;;;24.60;8.60;;;2.30;99.90;;;2.88;90.76;101316.94;5071683;28;20302;-71
2021/01/05 06:40:27;;;;;;;27.03;9.93;;;2.30;99.90;;;2.87;90.70;101317.78;5071335;28;20183;-71
2021/01/05 06:42:55;;;;;;;30.20;10.33;;;2.20;99.90;;;2.86;91.00;101323.81;5071268;28;20204;-71
2021/01/05 06:45:27;;;;;;;31.23;10.97;;;2.20;99.90;;;2.84;90.93;101310.88;5070116;28;20196;-71
2021/01/05 06:47:53;;;;;;;28.27;9.90;;;2.20;99.90;;;2.86;91.18;101313.47;5070198;28;20234;-72
2021/01/05 06:50:23;;;;;;;28.77;10.73;;;2.20;99.90;;;2.87;91.21;101315.19;5069687;28;20216;-71
2021/01/05 06:52:51;;;;;;;30.52;10.85;;;2.20;99.90;;;2.90;91.31;101315.22;5071242;28;20219;-72
2021/01/05 06:55:18;;;;;;;30.23;11.00;;;2.20;99.90;;;2.92;91.56;101324.69;5071229;28;20184;-72
2021/01/05 06:57:45;;;;;;;28.52;10.65;;;2.30;99.90;;;2.94;91.65;101314.34;5069815;28;20207;-71
2021/01/05 07:00:17;;;;;;;39.78;12.30;;;2.30;99.90;;;2.96;91.64;101321.28;5065666;28;20200;-72
2021/01/05 07:02:43;;;;;;;32.17;10.73;;;2.30;99.90;;;2.99;91.68;101315.22;5059412;28;20227;-71
2021/01/05 07:05:11;;;;;;;36.97;11.87;;;2.30;99.90;;;2.97;91.61;101312.66;5049852;28;20188;-71
2021/01/05 07:07:37;;;;;;;34.37;11.67;;;2.30;99.90;;;2.97;91.57;101330.75;5050049;28;20215;-72
2021/01/05 07:10:07;;;;;;;28.37;10.43;;;2.30;99.90;;;2.96;91.63;101330.72;5050851;28;20282;-71
2021/01/05 07:12:34;;;;;;;33.70;11.30;;;2.30;99.90;;;2.97;91.67;101316.94;5051120;28;20768;-71
2021/01/05 07:15:00;;;;;;;33.67;12.17;;;2.30;99.90;;;2.99;91.81;101325.56;5049811;28;20692;-72
2021/01/05 07:17:27;;;;;;;31.37;10.83;;;2.30;99.90;;;2.99;92.04;101325.56;5051447;28;20180;-71
2021/01/05 07:19:53;;;;;;;37.57;12.80;;;2.30;99.90;;;2.99;91.77;101323.00;5049654;28;20189;-72
2021/01/05 07:22:20;;;;;;;31.77;11.70;;;2.30;99.90;;;2.98;91.79;101322.13;5049442;28;20927;-71
2021/01/05 07:24:46;;;;;;;33.07;11.20;;;2.30;99.90;;;2.98;91.97;101334.19;5056819;28;20688;-72
2021/01/05 07:27:13;;;;;;;32.10;10.30;;;2.30;99.90;;;2.95;91.82;101335.03;5064811;28;20180;-72
2021/01/05 07:29:39;;;;;;;32.27;11.30;;;2.30;99.90;;;2.94;91.97;101327.28;5074996;28;20188;-72
2021/01/05 07:32:06;;;;;;;35.23;12.40;;;2.20;99.90;;;2.96;92.04;101330.72;5074914;28;20216;-71
2021/01/05 07:34:37;;;;;;;38.08;12.65;;;2.30;99.90;;;2.99;92.35;101334.19;5074892;28;20230;-71
2021/01/05 07:37:08;;;;;;;33.13;11.47;;;2.30;99.90;;;3.00;92.35;101333.31;5075045;28;20637;-71
2021/01/05 07:39:34;;;;;;;31.05;11.07;;;2.30;99.90;;;3.01;92.23;101334.19;5075697;28;20604;-72
2021/01/05 07:42:19;;;;;;;30.70;10.50;;;2.30;99.90;;;3.00;92.16;101337.66;5074667;28;20302;-72
2021/01/05 07:44:48;;;;;;;32.63;11.47;;;2.30;99.90;;;3.03;92.28;101341.09;5074712;28;20176;-74
2021/01/05 07:47:17;;;;;;;29.08;10.38;;;2.30;99.90;;;3.06;92.20;101338.53;5074695;28;20195;-73
2021/01/05 07:49:44;;;;;;;27.70;10.73;;;2.40;99.90;;;3.08;92.30;101328.19;5073031;28;20668;-71
2021/01/05 07:52:20;;;;;;;35.92;11.68;;;2.40;99.90;;;3.10;92.27;101329.06;5073094;28;20212;-72
2021/01/05 07:54:46;;;;;;;36.97;12.20;;;2.40;99.90;;;3.10;92.03;101342.00;5072955;28;20200;-74
2021/01/05 07:57:12;;;;;;;28.37;10.03;;;2.40;99.90;;;3.09;92.05;101341.13;5066301;28;20195;-73
2021/01/05 07:59:40;;;;;;;32.65;11.80;;;2.40;99.90;;;3.08;91.89;101335.94;5072854;28;20192;-73
2021/01/05 08:02:07;;;;;;;30.70;11.13;;;2.40;99.90;;;3.06;91.91;101338.53;5073297;28;20277;-72
2021/01/05 08:04:33;;;;;;;35.63;14.23;;;2.40;99.90;;;3.09;92.39;101338.53;5072989;28;20189;-73
2021/01/05 08:06:59;;;;;;;34.03;13.63;;;2.40;99.90;;;3.09;91.92;101332.50;5072859;28;20203;-72
2021/01/05 08:09:26;;;;;;;33.67;13.43;;;2.40;99.90;;;3.09;91.98;101338.53;5073817;28;20212;-72
2021/01/05 08:11:52;;;;;;;32.10;11.93;;;2.40;99.90;;;3.10;92.08;101334.22;5072868;28;20219;-73
2021/01/05 08:14:18;;;;;;;29.30;10.70;;;2.40;99.90;;;3.11;92.17;101338.53;5074111;28;20177;-72
2021/01/05 08:16:49;;;;;;;31.03;11.03;;;2.50;99.90;;;3.11;92.22;101330.78;5074338;28;20184;-72
2021/01/05 08:19:16;;;;;;;30.63;11.03;;;2.50;99.90;;;3.12;92.33;101333.38;5073963;28;20233;-73
2021/01/05 08:21:42;;;;;;;34.57;10.77;;;2.50;99.90;;;3.14;91.96;101341.13;5072770;28;20223;-72
2021/01/05 08:24:09;;;;;;;33.87;11.60;;;2.50;99.90;;;3.11;92.08;101329.06;5071668;28;20196;-70
2021/01/05 08:26:35;;;;;;;35.20;11.97;;;2.50;99.90;;;3.11;91.91;101336.81;5065563;28;20208;-72
2021/01/05 08:29:04;;;;;;;33.60;11.83;;;2.50;99.90;;;3.13;91.85;101345.41;5073158;28;20242;-72
2021/01/05 08:31:33;;;;;;;31.23;10.83;;;2.50;99.90;;;3.14;92.00;101342.00;5073775;28;20208;-72
2021/01/05 08:34:00;;;;;;;30.93;9.90;;;2.50;99.90;;;3.15;91.84;101350.63;5072675;28;20196;-72
2021/01/05 08:36:28;;;;;;;30.60;11.23;;;2.50;99.90;;;3.11;91.94;101356.63;5073906;28;20207;-72
2021/01/05 08:38:54;;;;;;;36.33;11.87;;;2.50;99.90;;;3.11;92.01;101354.03;5070815;28;20302;-72
2021/01/05 08:41:21;;;;;;;32.50;12.13;;;2.50;99.90;;;3.09;92.28;101358.34;5073769;28;20195;-73
2021/01/05 08:43:49;;;;;;;35.17;12.93;;;2.50;99.90;;;3.11;92.03;101360.09;5072552;28;20204;-72
2021/01/05 08:46:21;;;;;;;37.30;11.83;;;2.50;99.90;;;3.11;92.21;101362.66;5074039;28;20242;-73
2021/01/05 08:48:48;;;;;;;34.17;12.57;;;2.50;99.90;;;3.12;92.41;101361.78;5072118;28;20199;-73
2021/01/05 08:51:17;;;;;;;35.73;12.33;;;2.50;99.90;;;3.13;92.21;101358.34;5072113;28;20269;-72
2021/01/05 08:53:43;;;;;;;33.83;12.17;;;2.50;99.90;;;3.13;92.43;101355.75;5073468;28;20180;-75
2021/01/05 08:56:18;;;;;;;31.83;11.57;;;2.50;99.90;;;3.14;92.41;101352.34;5063386;28;20211;-71
2021/01/05 08:58:45;;;;;;;32.67;11.77;;;2.50;99.90;;;3.16;92.33;101360.09;5056419;28;20188;-72
2021/01/05 09:01:11;;;;;;;33.50;12.13;;;2.50;99.90;;;3.18;92.46;101350.63;5051890;28;20198;-73
2021/01/05 09:03:38;;;;;;;29.07;11.03;;;2.50;99.90;;;3.22;92.11;101353.22;5051721;28;20217;-72
2021/01/05 09:06:04;;;;;;;36.67;12.27;;;2.60;99.90;;;3.22;92.16;101355.78;5051999;28;20567;-73
2021/01/05 09:08:32;;;;;;;30.50;11.15;;;2.60;99.90;;;3.23;92.17;101356.66;5051550;28;20189;-73
2021/01/05 09:10:59;;;;;;;31.90;11.60;;;2.60;99.90;;;3.23;92.14;101351.50;5052871;28;20221;-72
2021/01/05 09:13:26;;;;;;;29.90;11.13;;;2.60;99.90;;;3.26;92.36;101354.09;5051606;28;20593;-72
2021/01/05 09:15:53;;;;;;;33.92;12.07;;;2.60;99.90;;;3.26;92.31;101344.63;5051756;28;20200;-71
2021/01/05 09:18:20;;;;;;;29.35;11.65;;;2.60;99.90;;;3.32;91.70;101346.31;5052647;28;20199;-74
2021/01/05 09:20:50;;;;;;;32.03;11.30;;;2.70;99.90;;;3.34;92.02;101345.47;5052977;28;20189;-72
2021/01/05 09:23:21;;;;;;;34.03;11.63;;;2.70;99.90;;;3.33;92.04;101338.56;5051365;28;20217;-72
2021/01/05 09:25:50;;;;;;;31.10;12.37;;;2.70;99.90;;;3.37;92.03;101340.31;5065759;28;20226;-74
2021/01/05 09:28:17;;;;;;;28.00;11.45;;;2.70;99.90;;;3.41;92.22;101341.19;5065395;28;20628;-72
2021/01/05 09:30:45;;;;;;;30.43;11.70;;;2.80;99.90;;;3.42;91.72;101348.94;5088222;28;20256;-72
2021/01/05 09:33:11;;;;;;;36.13;11.65;;;2.80;99.90;;;3.41;91.38;101342.06;5072622;28;20680;-71
2021/01/05 09:35:37;;;;;;;33.83;11.77;;;2.70;99.90;;;3.43;91.45;101345.47;5072621;28;20191;-72
2021/01/05 09:38:08;;;;;;;31.87;11.93;;;2.80;99.90;;;3.46;91.45;101344.63;5072329;28;20271;-72
2021/01/05 09:40:35;;;;;;;31.02;11.68;;;2.80;99.90;;;3.47;91.47;101333.41;5072419;28;20192;-72
2021/01/05 09:43:03;;;;;;;28.20;11.43;;;2.80;99.90;;;3.48;91.06;101338.59;5072436;28;20258;-73
2021/01/05 09:45:29;;;;;;;30.85;11.70;;;2.80;99.90;;;3.50;91.42;101338.63;5072587;28;20661;-72
2021/01/05 09:48:04;;;;;;;30.25;10.35;;;2.80;99.90;;;3.54;91.15;101329.97;5071555;28;20226;-72
2021/01/05 09:50:31;;;;;;;30.55;10.38;;;2.90;99.90;;;3.56;91.15;101336.03;5071753;28;20203;-72
2021/01/05 09:52:57;;;;;;;32.20;11.03;;;2.90;99.90;;;3.55;90.79;101318.78;5070704;28;20212;-74
2021/01/05 09:55:25;;;;;;;26.73;10.75;;;2.90;99.90;;;3.52;90.96;101319.63;5064765;28;20193;-72
2021/01/05 09:57:52;;;;;;;30.50;10.98;;;2.90;99.90;;;3.52;90.88;101323.94;5060147;28;20364;-71
2021/01/05 10:00:20;;;;;;;27.08;10.40;;;2.90;99.90;;;3.52;90.75;101340.34;5050811;28;20649;-73
2021/01/05 10:02:47;;;;;;;29.90;10.38;;;2.90;99.90;;;3.49;90.76;101332.56;5051990;28;20216;-72
2021/01/05 10:05:15;;;;;;;24.70;9.43;;;2.90;99.90;;;3.45;90.78;101335.16;5050670;28;20204;-72
2021/01/05 10:07:42;;;;;;;29.60;11.40;;;2.90;99.90;;;3.42;90.85;101327.38;5051900;28;20231;-72
2021/01/05 10:10:16;;;;;;;27.00;11.10;;;2.80;99.90;;;3.45;91.08;101324.81;5051389;28;20205;-72
2021/01/05 10:12:43;;;;;;;30.90;11.23;;;2.90;99.90;;;3.46;90.84;101322.22;5051718;28;20208;-74
2021/01/05 10:15:11;;;;;;;28.63;10.77;;;2.90;99.90;;;3.49;91.27;101321.34;5051692;28;20185;-72
2021/01/05 10:17:38;;;;;;;31.13;12.87;;;2.90;99.90;;;3.49;90.77;101314.47;5051827;28;20260;-73
2021/01/05 10:20:07;;;;;;;30.30;11.93;;;2.90;99.90;;;3.52;91.03;101314.47;5051486;28;20184;-72
2021/01/05 10:22:34;;;;;;;39.35;13.57;;;2.90;99.90;;;3.53;90.97;101310.16;5051098;28;20213;-72
2021/01/05 10:25:00;;;;;;;28.48;10.38;;;2.90;99.90;;;3.53;90.93;101315.34;5058956;28;20207;-73
2021/01/05 10:27:26;;;;;;;33.47;13.13;;;2.80;99.90;;;3.52;91.10;101311.00;5063089;28;20192;-72
2021/01/05 10:29:55;;;;;;;32.92;11.95;;;2.80;99.90;;;3.54;91.01;101306.69;5071152;28;20183;-72
2021/01/05 10:32:22;;;;;;;30.33;10.27;;;2.80;99.90;;;3.55;91.20;101317.03;5071338;28;20208;-73
2021/01/05 10:34:49;;;;;;;26.05;10.40;;;2.80;99.90;;;3.57;91.03;101314.47;5069889;28;20202;-73
2021/01/05 10:37:15;;;;;;;29.98;10.63;;;2.90;99.90;;;3.59;91.36;101308.44;5071339;28;20660;-72
2021/01/05 10:39:41;;;;;;;29.75;11.48;;;2.90;99.90;;;3.60;91.11;101306.72;5071103;28;20710;-72
2021/01/05 10:42:08;;;;;;;30.87;10.97;;;2.90;99.90;;;3.59;91.25;101302.41;5070013;28;20215;-72
2021/01/05 10:44:34;;;;;;;31.92;12.07;;;2.90;99.90;;;3.59;91.38;101300.69;5071302;28;20660;-73
2021/01/05 10:47:04;;;;;;;29.27;11.02;;;2.90;99.90;;;3.63;91.55;101298.97;5071238;28;20188;-73